sensor_id;sensor_type;location;lat;lon;timestamp;P1;durP1;ratioP1;P2;durP2;ratioP2
47669;SDS011;33408;52.062;11.722;2023-07-28T00:00:06;5.82;;;1.90;;
47669;SDS011;33408;52.062;11.722;2023-07-28T00:02:33;5.38;;;1.90;;
47669;SDS011;33408;52.062;11.722;2023-07-28T00:05:00;9.93;;;2.70;;
47669;SDS011;33408;52.062;11.722;2023-07-28T00:07:27;5.97;;;2.22;;
47669;SDS011;33408;52.062;11.722;2023-07-28T00:09:59;8.15;;;2.17;;
47669;SDS011;33408;52.062;11.722;2023-07-28T00:12:25;7.28;;;2.20;;
47669;SDS011;33408;52.062;11.722;2023-07-28T00:14:52;6.68;;;2.35;;
47669;SDS011;33408;52.062;11.722;2023-07-28T00:17:20;5.75;;;2.17;;
47669;SDS011;33408;52.062;11.722;2023-07-28T00:19:46;5.55;;;2.30;;
47669;SDS011;33408;52.062;11.722;2023-07-28T00:22:13;5.40;;;2.55;;
47669;SDS011;33408;52.062;11.722;2023-07-28T00:24:39;5.43;;;2.00;;
47669;SDS011;33408;52.062;11.722;2023-07-28T00:27:06;8.25;;;2.53;;
47669;SDS011;33408;52.062;11.722;2023-07-28T00:29:32;8.10;;;2.15;;
47669;SDS011;33408;52.062;11.722;2023-07-28T00:31:59;6.43;;;2.90;;
47669;SDS011;33408;52.062;11.722;2023-07-28T00:34:27;7.97;;;2.80;;
47669;SDS011;33408;52.062;11.722;2023-07-28T00:36:53;5.32;;;2.38;;
47669;SDS011;33408;52.062;11.722;2023-07-28T00:39:20;5.40;;;2.28;;
47669;SDS011;33408;52.062;11.722;2023-07-28T00:41:47;5.28;;;2.80;;
47669;SDS011;33408;52.062;11.722;2023-07-28T00:44:13;4.10;;;2.15;;
47669;SDS011;33408;52.062;11.722;2023-07-28T00:46:41;8.65;;;2.78;;
47669;SDS011;33408;52.062;11.722;2023-07-28T00:49:08;4.40;;;2.50;;
47669;SDS011;33408;52.062;11.722;2023-07-28T00:51:36;7.32;;;3.00;;
47669;SDS011;33408;52.062;11.722;2023-07-28T00:54:03;6.57;;;2.83;;
47669;SDS011;33408;52.062;11.722;2023-07-28T00:56:30;5.75;;;2.40;;
47669;SDS011;33408;52.062;11.722;2023-07-28T00:58:57;8.73;;;2.80;;
47669;SDS011;33408;52.062;11.722;2023-07-28T01:01:24;8.85;;;2.97;;
47669;SDS011;33408;52.062;11.722;2023-07-28T01:03:50;5.95;;;2.97;;
47669;SDS011;33408;52.062;11.722;2023-07-28T01:06:20;6.40;;;2.67;;
47669;SDS011;33408;52.062;11.722;2023-07-28T01:08:56;6.05;;;2.30;;
47669;SDS011;33408;52.062;11.722;2023-07-28T01:13:51;8.48;;;3.15;;
47669;SDS011;33408;52.062;11.722;2023-07-28T01:16:18;5.97;;;3.03;;
47669;SDS011;33408;52.062;11.722;2023-07-28T01:18:45;8.73;;;3.05;;
47669;SDS011;33408;52.062;11.722;2023-07-28T01:21:13;5.30;;;2.58;;
47669;SDS011;33408;52.062;11.722;2023-07-28T01:23:48;13.45;;;3.28;;
47669;SDS011;33408;52.062;11.722;2023-07-28T01:26:27;8.50;;;3.03;;
47669;SDS011;33408;52.062;11.722;2023-07-28T01:28:56;5.82;;;2.88;;
47669;SDS011;33408;52.062;11.722;2023-07-28T01:31:23;8.30;;;3.20;;
47669;SDS011;33408;52.062;11.722;2023-07-28T01:33:50;5.70;;;2.60;;
47669;SDS011;33408;52.062;11.722;2023-07-28T01:36:16;8.43;;;3.00;;
47669;SDS011;33408;52.062;11.722;2023-07-28T01:38:43;6.10;;;2.97;;
47669;SDS011;33408;52.062;11.722;2023-07-28T01:41:09;5.90;;;2.35;;
47669;SDS011;33408;52.062;11.722;2023-07-28T01:43:37;5.45;;;2.80;;
47669;SDS011;33408;52.062;11.722;2023-07-28T01:46:04;5.70;;;2.63;;
47669;SDS011;33408;52.062;11.722;2023-07-28T01:48:31;7.50;;;2.40;;
47669;SDS011;33408;52.062;11.722;2023-07-28T01:50:57;5.75;;;2.45;;
47669;SDS011;33408;52.062;11.722;2023-07-28T01:53:24;5.90;;;2.60;;
47669;SDS011;33408;52.062;11.722;2023-07-28T01:55:50;6.13;;;2.33;;
47669;SDS011;33408;52.062;11.722;2023-07-28T01:58:17;6.47;;;2.20;;
47669;SDS011;33408;52.062;11.722;2023-07-28T02:00:45;5.05;;;2.33;;
47669;SDS011;33408;52.062;11.722;2023-07-28T02:03:11;4.20;;;2.15;;
47669;SDS011;33408;52.062;11.722;2023-07-28T02:05:38;6.63;;;2.30;;
47669;SDS011;33408;52.062;11.722;2023-07-28T02:08:05;4.32;;;2.25;;
47669;SDS011;33408;52.062;11.722;2023-07-28T02:10:31;5.15;;;2.80;;
47669;SDS011;33408;52.062;11.722;2023-07-28T02:12:58;8.43;;;2.65;;
47669;SDS011;33408;52.062;11.722;2023-07-28T02:15:24;5.78;;;2.45;;
47669;SDS011;33408;52.062;11.722;2023-07-28T02:17:52;7.15;;;2.60;;
47669;SDS011;33408;52.062;11.722;2023-07-28T02:20:19;7.70;;;2.50;;
47669;SDS011;33408;52.062;11.722;2023-07-28T02:22:45;4.35;;;1.98;;
47669;SDS011;33408;52.062;11.722;2023-07-28T02:25:12;4.90;;;2.20;;
47669;SDS011;33408;52.062;11.722;2023-07-28T02:27:38;4.75;;;2.05;;
47669;SDS011;33408;52.062;11.722;2023-07-28T02:30:06;4.22;;;2.15;;
47669;SDS011;33408;52.062;11.722;2023-07-28T02:32:33;4.15;;;2.05;;
47669;SDS011;33408;52.062;11.722;2023-07-28T02:35:01;3.83;;;2.17;;
47669;SDS011;33408;52.062;11.722;2023-07-28T02:37:28;5.72;;;1.98;;
47669;SDS011;33408;52.062;11.722;2023-07-28T02:39:54;6.43;;;2.40;;
47669;SDS011;33408;52.062;11.722;2023-07-28T02:42:21;4.60;;;2.30;;
47669;SDS011;33408;52.062;11.722;2023-07-28T02:44:48;3.70;;;1.95;;
47669;SDS011;33408;52.062;11.722;2023-07-28T02:47:15;5.20;;;1.73;;
47669;SDS011;33408;52.062;11.722;2023-07-28T02:49:42;4.90;;;1.90;;
47669;SDS011;33408;52.062;11.722;2023-07-28T02:52:10;5.03;;;1.90;;
47669;SDS011;33408;52.062;11.722;2023-07-28T02:54:37;3.13;;;1.50;;
47669;SDS011;33408;52.062;11.722;2023-07-28T02:57:04;7.13;;;1.88;;
47669;SDS011;33408;52.062;11.722;2023-07-28T02:59:31;4.05;;;1.40;;
47669;SDS011;33408;52.062;11.722;2023-07-28T03:01:57;8.32;;;2.25;;
47669;SDS011;33408;52.062;11.722;2023-07-28T03:04:24;2.70;;;1.50;;
47669;SDS011;33408;52.062;11.722;2023-07-28T03:06:51;4.05;;;1.85;;
47669;SDS011;33408;52.062;11.722;2023-07-28T03:09:19;4.30;;;1.50;;
47669;SDS011;33408;52.062;11.722;2023-07-28T03:11:45;3.35;;;1.30;;
47669;SDS011;33408;52.062;11.722;2023-07-28T03:14:12;3.75;;;1.70;;
47669;SDS011;33408;52.062;11.722;2023-07-28T03:16:39;5.95;;;1.85;;
47669;SDS011;33408;52.062;11.722;2023-07-28T03:19:06;4.07;;;1.40;;
47669;SDS011;33408;52.062;11.722;2023-07-28T03:21:32;5.60;;;1.88;;
47669;SDS011;33408;52.062;11.722;2023-07-28T03:23:59;5.18;;;1.60;;
47669;SDS011;33408;52.062;11.722;2023-07-28T03:26:27;3.38;;;1.52;;
47669;SDS011;33408;52.062;11.722;2023-07-28T03:28:53;2.55;;;1.20;;
47669;SDS011;33408;52.062;11.722;2023-07-28T03:31:20;4.25;;;1.40;;
47669;SDS011;33408;52.062;11.722;2023-07-28T03:33:47;4.38;;;1.83;;
47669;SDS011;33408;52.062;11.722;2023-07-28T03:36:13;2.28;;;1.20;;
47669;SDS011;33408;52.062;11.722;2023-07-28T03:38:40;5.00;;;1.60;;
47669;SDS011;33408;52.062;11.722;2023-07-28T03:41:06;6.57;;;1.52;;
47669;SDS011;33408;52.062;11.722;2023-07-28T03:43:35;2.50;;;1.20;;
47669;SDS011;33408;52.062;11.722;2023-07-28T03:46:02;5.97;;;1.15;;
47669;SDS011;33408;52.062;11.722;2023-07-28T03:48:28;3.60;;;1.30;;
47669;SDS011;33408;52.062;11.722;2023-07-28T03:50:55;5.18;;;1.50;;
47669;SDS011;33408;52.062;11.722;2023-07-28T03:53:22;3.05;;;1.33;;
47669;SDS011;33408;52.062;11.722;2023-07-28T03:55:48;4.05;;;1.40;;
47669;SDS011;33408;52.062;11.722;2023-07-28T03:58:15;4.15;;;1.40;;
47669;SDS011;33408;52.062;11.722;2023-07-28T04:00:43;2.88;;;1.33;;
47669;SDS011;33408;52.062;11.722;2023-07-28T04:03:10;4.50;;;1.40;;
47669;SDS011;33408;52.062;11.722;2023-07-28T04:05:36;3.97;;;1.10;;
47669;SDS011;33408;52.062;11.722;2023-07-28T04:08:03;2.53;;;1.00;;
47669;SDS011;33408;52.062;11.722;2023-07-28T04:10:30;2.95;;;1.02;;
47669;SDS011;33408;52.062;11.722;2023-07-28T04:12:57;5.57;;;1.30;;
47669;SDS011;33408;52.062;11.722;2023-07-28T04:15:23;4.75;;;1.40;;
47669;SDS011;33408;52.062;11.722;2023-07-28T04:17:51;4.20;;;1.27;;
47669;SDS011;33408;52.062;11.722;2023-07-28T04:20:18;2.40;;;1.00;;
47669;SDS011;33408;52.062;11.722;2023-07-28T04:22:44;3.42;;;1.25;;
47669;SDS011;33408;52.062;11.722;2023-07-28T04:25:11;2.55;;;1.00;;
47669;SDS011;33408;52.062;11.722;2023-07-28T04:27:38;2.17;;;1.17;;
47669;SDS011;33408;52.062;11.722;2023-07-28T04:30:05;0.95;;;0.60;;
47669;SDS011;33408;52.062;11.722;2023-07-28T04:32:32;2.22;;;1.08;;
47669;SDS011;33408;52.062;11.722;2023-07-28T04:35:00;2.83;;;1.08;;
47669;SDS011;33408;52.062;11.722;2023-07-28T04:37:26;2.08;;;0.75;;
47669;SDS011;33408;52.062;11.722;2023-07-28T04:39:53;3.10;;;1.20;;
47669;SDS011;33408;52.062;11.722;2023-07-28T04:42:20;2.90;;;0.70;;
47669;SDS011;33408;52.062;11.722;2023-07-28T04:44:46;2.00;;;0.82;;
47669;SDS011;33408;52.062;11.722;2023-07-28T04:47:13;1.50;;;0.90;;
47669;SDS011;33408;52.062;11.722;2023-07-28T04:49:39;0.73;;;0.63;;
47669;SDS011;33408;52.062;11.722;2023-07-28T04:52:07;2.65;;;0.80;;
47669;SDS011;33408;52.062;11.722;2023-07-28T04:54:34;2.72;;;1.00;;
47669;SDS011;33408;52.062;11.722;2023-07-28T04:57:01;1.60;;;0.68;;
47669;SDS011;33408;52.062;11.722;2023-07-28T04:59:28;3.65;;;0.60;;
47669;SDS011;33408;52.062;11.722;2023-07-28T05:01:54;3.33;;;0.70;;
47669;SDS011;33408;52.062;11.722;2023-07-28T05:04:21;0.98;;;0.50;;
47669;SDS011;33408;52.062;11.722;2023-07-28T05:06:48;3.60;;;0.70;;
47669;SDS011;33408;52.062;11.722;2023-07-28T05:09:15;1.63;;;0.63;;
47669;SDS011;33408;52.062;11.722;2023-07-28T05:11:42;1.83;;;0.82;;
47669;SDS011;33408;52.062;11.722;2023-07-28T05:14:09;2.05;;;0.35;;
47669;SDS011;33408;52.062;11.722;2023-07-28T05:16:36;1.73;;;0.60;;
47669;SDS011;33408;52.062;11.722;2023-07-28T05:19:03;0.88;;;0.30;;
47669;SDS011;33408;52.062;11.722;2023-07-28T05:21:31;3.67;;;0.70;;
47669;SDS011;33408;52.062;11.722;2023-07-28T05:23:57;4.25;;;0.65;;
47669;SDS011;33408;52.062;11.722;2023-07-28T05:26:26;3.22;;;0.55;;
47669;SDS011;33408;52.062;11.722;2023-07-28T05:28:52;2.53;;;0.52;;
47669;SDS011;33408;52.062;11.722;2023-07-28T05:31:19;2.45;;;0.40;;
47669;SDS011;33408;52.062;11.722;2023-07-28T05:33:45;1.65;;;0.50;;
47669;SDS011;33408;52.062;11.722;2023-07-28T05:36:12;2.38;;;0.63;;
47669;SDS011;33408;52.062;11.722;2023-07-28T05:38:39;3.35;;;0.50;;
47669;SDS011;33408;52.062;11.722;2023-07-28T05:41:05;1.60;;;0.50;;
47669;SDS011;33408;52.062;11.722;2023-07-28T05:43:33;3.40;;;0.73;;
47669;SDS011;33408;52.062;11.722;2023-07-28T05:46:00;0.95;;;0.60;;
47669;SDS011;33408;52.062;11.722;2023-07-28T05:48:27;4.82;;;0.38;;
47669;SDS011;33408;52.062;11.722;2023-07-28T05:50:53;1.15;;;0.70;;
47669;SDS011;33408;52.062;11.722;2023-07-28T05:53:20;0.43;;;0.40;;
47669;SDS011;33408;52.062;11.722;2023-07-28T05:55:47;3.92;;;0.57;;
47669;SDS011;33408;52.062;11.722;2023-07-28T05:58:14;7.75;;;0.77;;
47669;SDS011;33408;52.062;11.722;2023-07-28T06:00:42;3.10;;;0.70;;
47669;SDS011;33408;52.062;11.722;2023-07-28T06:03:09;2.75;;;1.02;;
47669;SDS011;33408;52.062;11.722;2023-07-28T06:05:37;2.00;;;0.80;;
47669;SDS011;33408;52.062;11.722;2023-07-28T06:08:05;1.75;;;0.85;;
47669;SDS011;33408;52.062;11.722;2023-07-28T06:10:32;3.35;;;0.90;;
47669;SDS011;33408;52.062;11.722;2023-07-28T06:12:58;1.95;;;1.02;;
47669;SDS011;33408;52.062;11.722;2023-07-28T06:15:25;2.50;;;0.93;;
47669;SDS011;33408;52.062;11.722;2023-07-28T06:17:53;3.10;;;0.88;;
47669;SDS011;33408;52.062;11.722;2023-07-28T06:20:19;1.73;;;1.00;;
47669;SDS011;33408;52.062;11.722;2023-07-28T06:22:46;1.48;;;0.93;;
47669;SDS011;33408;52.062;11.722;2023-07-28T06:25:13;7.28;;;1.48;;
47669;SDS011;33408;52.062;11.722;2023-07-28T06:27:39;1.90;;;1.00;;
47669;SDS011;33408;52.062;11.722;2023-07-28T06:30:06;3.08;;;1.13;;
47669;SDS011;33408;52.062;11.722;2023-07-28T06:32:34;1.90;;;1.00;;
47669;SDS011;33408;52.062;11.722;2023-07-28T06:35:02;5.93;;;1.50;;
47669;SDS011;33408;52.062;11.722;2023-07-28T06:37:29;2.35;;;1.00;;
47669;SDS011;33408;52.062;11.722;2023-07-28T06:39:55;3.00;;;1.00;;
47669;SDS011;33408;52.062;11.722;2023-07-28T06:42:22;2.20;;;1.10;;
47669;SDS011;33408;52.062;11.722;2023-07-28T06:44:49;4.45;;;1.15;;
47669;SDS011;33408;52.062;11.722;2023-07-28T06:47:16;3.60;;;1.30;;
47669;SDS011;33408;52.062;11.722;2023-07-28T06:49:42;5.88;;;1.45;;
47669;SDS011;33408;52.062;11.722;2023-07-28T06:52:10;7.85;;;1.42;;
47669;SDS011;33408;52.062;11.722;2023-07-28T06:54:37;4.15;;;1.40;;
47669;SDS011;33408;52.062;11.722;2023-07-28T06:57:04;5.70;;;1.50;;
47669;SDS011;33408;52.062;11.722;2023-07-28T06:59:31;2.83;;;1.33;;
47669;SDS011;33408;52.062;11.722;2023-07-28T07:01:58;3.65;;;1.35;;
47669;SDS011;33408;52.062;11.722;2023-07-28T07:04:24;3.92;;;1.60;;
47669;SDS011;33408;52.062;11.722;2023-07-28T07:06:51;3.88;;;1.83;;
47669;SDS011;33408;52.062;11.722;2023-07-28T07:09:19;7.00;;;1.30;;
47669;SDS011;33408;52.062;11.722;2023-07-28T07:11:45;3.10;;;1.70;;
47669;SDS011;33408;52.062;11.722;2023-07-28T07:14:12;2.75;;;1.33;;
47669;SDS011;33408;52.062;11.722;2023-07-28T07:16:39;6.85;;;1.83;;
47669;SDS011;33408;52.062;11.722;2023-07-28T07:19:06;2.15;;;1.10;;
47669;SDS011;33408;52.062;11.722;2023-07-28T07:21:33;2.05;;;1.13;;
47669;SDS011;33408;52.062;11.722;2023-07-28T07:24:00;3.35;;;1.40;;
47669;SDS011;33408;52.062;11.722;2023-07-28T07:26:29;8.77;;;1.63;;
47669;SDS011;33408;52.062;11.722;2023-07-28T07:28:57;1.55;;;1.08;;
47669;SDS011;33408;52.062;11.722;2023-07-28T07:31:23;7.40;;;1.25;;
47669;SDS011;33408;52.062;11.722;2023-07-28T07:33:50;1.63;;;1.10;;
47669;SDS011;33408;52.062;11.722;2023-07-28T07:36:17;2.80;;;1.33;;
47669;SDS011;33408;52.062;11.722;2023-07-28T07:38:45;3.72;;;1.50;;
47669;SDS011;33408;52.062;11.722;2023-07-28T07:41:12;2.30;;;1.17;;
47669;SDS011;33408;52.062;11.722;2023-07-28T07:43:42;3.95;;;1.17;;
47669;SDS011;33408;52.062;11.722;2023-07-28T07:46:09;3.17;;;1.30;;
47669;SDS011;33408;52.062;11.722;2023-07-28T07:48:35;2.25;;;1.35;;
47669;SDS011;33408;52.062;11.722;2023-07-28T07:51:02;7.38;;;1.70;;
47669;SDS011;33408;52.062;11.722;2023-07-28T07:53:28;5.45;;;1.50;;
47669;SDS011;33408;52.062;11.722;2023-07-28T07:55:55;2.58;;;1.70;;
47669;SDS011;33408;52.062;11.722;2023-07-28T07:58:22;5.05;;;1.60;;
47669;SDS011;33408;52.062;11.722;2023-07-28T08:00:50;3.78;;;1.42;;
47669;SDS011;33408;52.062;11.722;2023-07-28T08:03:16;2.92;;;1.70;;
47669;SDS011;33408;52.062;11.722;2023-07-28T08:05:43;4.32;;;1.40;;
47669;SDS011;33408;52.062;11.722;2023-07-28T08:08:09;2.92;;;1.58;;
47669;SDS011;33408;52.062;11.722;2023-07-28T08:10:36;5.97;;;1.70;;
47669;SDS011;33408;52.062;11.722;2023-07-28T08:13:05;2.53;;;1.50;;
47669;SDS011;33408;52.062;11.722;2023-07-28T08:15:31;3.95;;;1.55;;
47669;SDS011;33408;52.062;11.722;2023-07-28T08:18:00;3.30;;;1.55;;
47669;SDS011;33408;52.062;11.722;2023-07-28T08:20:26;7.22;;;1.70;;
47669;SDS011;33408;52.062;11.722;2023-07-28T08:22:53;2.88;;;1.52;;
47669;SDS011;33408;52.062;11.722;2023-07-28T08:25:20;3.55;;;1.75;;
47669;SDS011;33408;52.062;11.722;2023-07-28T08:27:47;2.90;;;1.48;;
47669;SDS011;33408;52.062;11.722;2023-07-28T08:30:14;4.47;;;1.50;;
47669;SDS011;33408;52.062;11.722;2023-07-28T08:32:41;3.72;;;1.52;;
47669;SDS011;33408;52.062;11.722;2023-07-28T08:35:09;3.30;;;1.67;;
47669;SDS011;33408;52.062;11.722;2023-07-28T08:37:36;3.15;;;1.20;;
47669;SDS011;33408;52.062;11.722;2023-07-28T08:40:02;3.80;;;1.65;;
47669;SDS011;33408;52.062;11.722;2023-07-28T08:42:30;4.82;;;1.30;;
47669;SDS011;33408;52.062;11.722;2023-07-28T08:45:02;3.00;;;1.40;;
47669;SDS011;33408;52.062;11.722;2023-07-28T08:47:29;5.40;;;1.10;;
47669;SDS011;33408;52.062;11.722;2023-07-28T08:49:56;3.05;;;1.50;;
47669;SDS011;33408;52.062;11.722;2023-07-28T08:52:24;2.55;;;1.15;;
47669;SDS011;33408;52.062;11.722;2023-07-28T08:54:51;4.90;;;1.38;;
47669;SDS011;33408;52.062;11.722;2023-07-28T08:57:17;4.85;;;1.27;;
47669;SDS011;33408;52.062;11.722;2023-07-28T08:59:44;4.55;;;1.30;;
47669;SDS011;33408;52.062;11.722;2023-07-28T09:02:13;5.28;;;1.13;;
47669;SDS011;33408;52.062;11.722;2023-07-28T09:04:41;2.47;;;1.08;;
47669;SDS011;33408;52.062;11.722;2023-07-28T09:07:08;1.27;;;1.00;;
47669;SDS011;33408;52.062;11.722;2023-07-28T09:09:36;2.97;;;1.30;;
47669;SDS011;33408;52.062;11.722;2023-07-28T09:12:02;4.43;;;1.30;;
47669;SDS011;33408;52.062;11.722;2023-07-28T09:14:30;2.33;;;1.35;;
47669;SDS011;33408;52.062;11.722;2023-07-28T09:16:59;2.03;;;1.33;;
47669;SDS011;33408;52.062;11.722;2023-07-28T09:19:32;3.38;;;1.33;;
47669;SDS011;33408;52.062;11.722;2023-07-28T09:22:00;1.95;;;1.20;;
47669;SDS011;33408;52.062;11.722;2023-07-28T09:24:31;4.28;;;1.45;;
47669;SDS011;33408;52.062;11.722;2023-07-28T09:27:00;4.88;;;1.35;;
47669;SDS011;33408;52.062;11.722;2023-07-28T09:29:27;4.32;;;1.30;;
47669;SDS011;33408;52.062;11.722;2023-07-28T09:31:54;2.28;;;1.00;;
47669;SDS011;33408;52.062;11.722;2023-07-28T09:34:30;2.15;;;1.27;;
47669;SDS011;33408;52.062;11.722;2023-07-28T09:36:57;3.67;;;1.23;;
47669;SDS011;33408;52.062;11.722;2023-07-28T09:39:25;3.10;;;1.52;;
47669;SDS011;33408;52.062;11.722;2023-07-28T09:41:53;3.15;;;1.50;;
47669;SDS011;33408;52.062;11.722;2023-07-28T09:44:24;3.58;;;1.50;;
47669;SDS011;33408;52.062;11.722;2023-07-28T09:46:51;2.75;;;1.60;;
47669;SDS011;33408;52.062;11.722;2023-07-28T09:49:21;4.22;;;1.67;;
47669;SDS011;33408;52.062;11.722;2023-07-28T09:51:51;3.45;;;1.77;;
47669;SDS011;33408;52.062;11.722;2023-07-28T09:54:20;5.72;;;1.95;;
47669;SDS011;33408;52.062;11.722;2023-07-28T09:59:21;5.05;;;1.70;;
47669;SDS011;33408;52.062;11.722;2023-07-28T10:01:54;2.72;;;1.48;;
47669;SDS011;33408;52.062;11.722;2023-07-28T10:04:22;3.55;;;1.92;;
47669;SDS011;33408;52.062;11.722;2023-07-28T10:06:49;3.42;;;1.58;;
47669;SDS011;33408;52.062;11.722;2023-07-28T10:11:48;2.83;;;1.50;;
47669;SDS011;33408;52.062;11.722;2023-07-28T10:14:25;4.32;;;1.75;;
47669;SDS011;33408;52.062;11.722;2023-07-28T10:16:53;2.70;;;1.73;;
47669;SDS011;33408;52.062;11.722;2023-07-28T10:19:20;3.47;;;1.90;;
47669;SDS011;33408;52.062;11.722;2023-07-28T10:21:47;3.13;;;1.50;;
47669;SDS011;33408;52.062;11.722;2023-07-28T10:24:14;2.53;;;1.40;;
47669;SDS011;33408;52.062;11.722;2023-07-28T10:26:42;4.82;;;1.50;;
47669;SDS011;33408;52.062;11.722;2023-07-28T10:29:12;1.73;;;1.25;;
47669;SDS011;33408;52.062;11.722;2023-07-28T10:31:50;3.22;;;1.60;;
47669;SDS011;33408;52.062;11.722;2023-07-28T10:34:17;2.92;;;1.63;;
47669;SDS011;33408;52.062;11.722;2023-07-28T10:36:44;3.90;;;1.58;;
47669;SDS011;33408;52.062;11.722;2023-07-28T10:39:15;3.50;;;1.35;;
47669;SDS011;33408;52.062;11.722;2023-07-28T10:44:28;4.18;;;1.95;;
47669;SDS011;33408;52.062;11.722;2023-07-28T10:46:56;2.33;;;1.50;;
47669;SDS011;33408;52.062;11.722;2023-07-28T10:49:24;2.45;;;1.63;;
47669;SDS011;33408;52.062;11.722;2023-07-28T10:51:50;4.60;;;1.55;;
47669;SDS011;33408;52.062;11.722;2023-07-28T10:54:17;2.15;;;1.50;;
47669;SDS011;33408;52.062;11.722;2023-07-28T10:56:45;2.20;;;1.55;;
47669;SDS011;33408;52.062;11.722;2023-07-28T10:59:11;3.47;;;1.77;;
47669;SDS011;33408;52.062;11.722;2023-07-28T11:01:38;3.97;;;1.65;;
47669;SDS011;33408;52.062;11.722;2023-07-28T11:04:09;4.47;;;2.00;;
47669;SDS011;33408;52.062;11.722;2023-07-28T11:06:37;2.60;;;1.77;;
47669;SDS011;33408;52.062;11.722;2023-07-28T11:09:05;5.13;;;1.70;;
47669;SDS011;33408;52.062;11.722;2023-07-28T11:11:32;5.07;;;1.75;;
47669;SDS011;33408;52.062;11.722;2023-07-28T11:14:01;6.55;;;2.25;;
47669;SDS011;33408;52.062;11.722;2023-07-28T11:16:28;5.22;;;1.55;;
47669;SDS011;33408;52.062;11.722;2023-07-28T11:18:55;7.35;;;1.92;;
47669;SDS011;33408;52.062;11.722;2023-07-28T11:21:23;3.67;;;1.73;;
47669;SDS011;33408;52.062;11.722;2023-07-28T11:23:50;2.70;;;1.50;;
47669;SDS011;33408;52.062;11.722;2023-07-28T11:26:19;3.35;;;1.38;;
47669;SDS011;33408;52.062;11.722;2023-07-28T11:28:46;3.17;;;1.60;;
47669;SDS011;33408;52.062;11.722;2023-07-28T11:31:12;2.20;;;1.48;;
47669;SDS011;33408;52.062;11.722;2023-07-28T11:33:39;3.47;;;1.50;;
47669;SDS011;33408;52.062;11.722;2023-07-28T11:36:06;2.55;;;1.52;;
47669;SDS011;33408;52.062;11.722;2023-07-28T11:38:34;2.45;;;1.60;;
47669;SDS011;33408;52.062;11.722;2023-07-28T11:41:02;3.53;;;1.40;;
47669;SDS011;33408;52.062;11.722;2023-07-28T11:43:29;7.13;;;1.60;;
47669;SDS011;33408;52.062;11.722;2023-07-28T11:45:56;1.70;;;1.27;;
47669;SDS011;33408;52.062;11.722;2023-07-28T11:48:22;3.33;;;1.50;;
47669;SDS011;33408;52.062;11.722;2023-07-28T11:50:49;3.22;;;1.55;;
47669;SDS011;33408;52.062;11.722;2023-07-28T11:53:18;2.70;;;1.52;;
47669;SDS011;33408;52.062;11.722;2023-07-28T11:55:47;2.33;;;1.30;;
47669;SDS011;33408;52.062;11.722;2023-07-28T11:58:13;6.20;;;1.58;;
47669;SDS011;33408;52.062;11.722;2023-07-28T12:00:40;3.30;;;1.63;;
47669;SDS011;33408;52.062;11.722;2023-07-28T12:03:09;2.28;;;1.40;;
47669;SDS011;33408;52.062;11.722;2023-07-28T12:05:37;2.22;;;1.42;;
47669;SDS011;33408;52.062;11.722;2023-07-28T12:08:05;4.28;;;1.77;;
47669;SDS011;33408;52.062;11.722;2023-07-28T12:10:33;3.33;;;1.70;;
47669;SDS011;33408;52.062;11.722;2023-07-28T12:13:04;2.10;;;1.25;;
47669;SDS011;33408;52.062;11.722;2023-07-28T12:15:34;3.95;;;1.30;;
47669;SDS011;33408;52.062;11.722;2023-07-28T12:18:09;2.45;;;1.30;;
47669;SDS011;33408;52.062;11.722;2023-07-28T12:20:38;3.25;;;1.25;;
47669;SDS011;33408;52.062;11.722;2023-07-28T12:23:06;4.40;;;1.60;;
47669;SDS011;33408;52.062;11.722;2023-07-28T12:25:35;5.20;;;1.73;;
47669;SDS011;33408;52.062;11.722;2023-07-28T12:28:03;3.58;;;1.50;;
47669;SDS011;33408;52.062;11.722;2023-07-28T12:30:31;4.88;;;1.77;;
47669;SDS011;33408;52.062;11.722;2023-07-28T12:32:58;4.65;;;1.80;;
47669;SDS011;33408;52.062;11.722;2023-07-28T12:35:25;4.47;;;1.77;;
47669;SDS011;33408;52.062;11.722;2023-07-28T12:37:55;3.58;;;1.30;;
47669;SDS011;33408;52.062;11.722;2023-07-28T12:40:24;2.72;;;1.60;;
47669;SDS011;33408;52.062;11.722;2023-07-28T12:42:52;4.88;;;1.85;;
47669;SDS011;33408;52.062;11.722;2023-07-28T12:45:21;4.10;;;1.70;;
47669;SDS011;33408;52.062;11.722;2023-07-28T12:47:50;3.63;;;1.65;;
47669;SDS011;33408;52.062;11.722;2023-07-28T12:50:17;3.60;;;1.73;;
47669;SDS011;33408;52.062;11.722;2023-07-28T12:52:44;3.45;;;1.83;;
47669;SDS011;33408;52.062;11.722;2023-07-28T12:55:11;2.47;;;1.67;;
47669;SDS011;33408;52.062;11.722;2023-07-28T12:57:37;3.90;;;2.03;;
47669;SDS011;33408;52.062;11.722;2023-07-28T13:00:05;2.83;;;1.73;;
47669;SDS011;33408;52.062;11.722;2023-07-28T13:02:39;4.45;;;1.83;;
47669;SDS011;33408;52.062;11.722;2023-07-28T13:05:06;2.53;;;1.63;;
47669;SDS011;33408;52.062;11.722;2023-07-28T13:07:35;3.15;;;1.85;;
47669;SDS011;33408;52.062;11.722;2023-07-28T13:10:03;2.22;;;1.50;;
47669;SDS011;33408;52.062;11.722;2023-07-28T13:12:30;2.88;;;1.73;;
47669;SDS011;33408;52.062;11.722;2023-07-28T13:14:57;4.40;;;1.98;;
47669;SDS011;33408;52.062;11.722;2023-07-28T13:17:23;3.38;;;1.80;;
47669;SDS011;33408;52.062;11.722;2023-07-28T13:19:51;3.00;;;1.73;;
47669;SDS011;33408;52.062;11.722;2023-07-28T13:22:18;4.05;;;1.70;;
47669;SDS011;33408;52.062;11.722;2023-07-28T13:24:44;3.08;;;1.88;;
47669;SDS011;33408;52.062;11.722;2023-07-28T13:27:11;4.30;;;2.00;;
47669;SDS011;33408;52.062;11.722;2023-07-28T13:29:37;3.20;;;2.00;;
47669;SDS011;33408;52.062;11.722;2023-07-28T13:32:09;3.65;;;1.92;;
47669;SDS011;33408;52.062;11.722;2023-07-28T13:34:41;2.75;;;1.75;;
47669;SDS011;33408;52.062;11.722;2023-07-28T13:37:09;2.90;;;1.67;;
47669;SDS011;33408;52.062;11.722;2023-07-28T13:39:36;4.63;;;1.92;;
47669;SDS011;33408;52.062;11.722;2023-07-28T13:42:03;3.70;;;1.95;;
47669;SDS011;33408;52.062;11.722;2023-07-28T13:44:30;3.47;;;1.83;;
47669;SDS011;33408;52.062;11.722;2023-07-28T13:46:56;4.10;;;2.08;;
47669;SDS011;33408;52.062;11.722;2023-07-28T13:49:23;24.98;;;2.47;;
47669;SDS011;33408;52.062;11.722;2023-07-28T13:51:50;4.85;;;2.15;;
47669;SDS011;33408;52.062;11.722;2023-07-28T13:54:18;4.68;;;2.15;;
47669;SDS011;33408;52.062;11.722;2023-07-28T13:56:44;3.80;;;2.05;;
47669;SDS011;33408;52.062;11.722;2023-07-28T13:59:11;3.33;;;2.00;;
47669;SDS011;33408;52.062;11.722;2023-07-28T14:01:38;4.53;;;1.95;;
47669;SDS011;33408;52.062;11.722;2023-07-28T14:04:04;3.08;;;1.80;;
47669;SDS011;33408;52.062;11.722;2023-07-28T14:06:31;4.53;;;1.98;;
47669;SDS011;33408;52.062;11.722;2023-07-28T14:08:58;2.90;;;1.60;;
47669;SDS011;33408;52.062;11.722;2023-07-28T14:11:26;3.20;;;1.83;;
47669;SDS011;33408;52.062;11.722;2023-07-28T14:13:52;5.47;;;2.10;;
47669;SDS011;33408;52.062;11.722;2023-07-28T14:16:19;3.70;;;2.08;;
47669;SDS011;33408;52.062;11.722;2023-07-28T14:18:45;4.90;;;1.90;;
47669;SDS011;33408;52.062;11.722;2023-07-28T14:21:13;4.20;;;2.20;;
47669;SDS011;33408;52.062;11.722;2023-07-28T14:23:40;4.95;;;2.28;;
47669;SDS011;33408;52.062;11.722;2023-07-28T14:26:06;6.65;;;2.22;;
47669;SDS011;33408;52.062;11.722;2023-07-28T14:28:34;3.83;;;1.95;;
47669;SDS011;33408;52.062;11.722;2023-07-28T14:31:01;4.80;;;1.92;;
47669;SDS011;33408;52.062;11.722;2023-07-28T14:33:27;3.83;;;2.13;;
47669;SDS011;33408;52.062;11.722;2023-07-28T14:35:54;4.05;;;2.00;;
47669;SDS011;33408;52.062;11.722;2023-07-28T14:38:21;3.45;;;1.83;;
47669;SDS011;33408;52.062;11.722;2023-07-28T14:40:48;6.13;;;2.13;;
47669;SDS011;33408;52.062;11.722;2023-07-28T14:43:17;4.20;;;1.60;;